createdAt,value
2022-10-06T00:03:37.749Z,0.55
2022-10-06T00:08:41.851Z,0.55
2022-10-06T00:13:44.840Z,0.51
2022-10-06T00:18:48.014Z,0.52
2022-10-06T00:23:50.832Z,0.54
2022-10-06T00:28:53.649Z,0.63
2022-10-06T00:33:56.426Z,0.61
2022-10-06T00:38:59.105Z,0.65
2022-10-06T00:44:02.252Z,0.71
2022-10-06T00:49:22.623Z,0.68
2022-10-06T00:54:25.931Z,0.79
2022-10-06T00:59:28.963Z,0.85
2022-10-06T01:04:33.490Z,0.90
2022-10-06T01:09:37.036Z,0.90
2022-10-06T01:14:40.677Z,0.96
2022-10-06T01:20:09.396Z,1.08
2022-10-06T01:25:15.100Z,1.18
2022-10-06T01:30:30.234Z,1.08
2022-10-06T01:35:33.092Z,1.06
2022-10-06T01:40:36.645Z,1.20
2022-10-06T01:45:39.786Z,1.22
2022-10-06T01:50:42.569Z,1.29
2022-10-06T01:55:45.253Z,1.48
2022-10-06T02:00:51.882Z,1.57
2022-10-06T02:05:57.018Z,1.50
2022-10-06T02:11:04.506Z,1.34
2022-10-06T02:16:08.541Z,1.35
2022-10-06T02:21:19.282Z,1.37
2022-10-06T02:26:22.008Z,1.66
2022-10-06T02:31:26.351Z,1.75
2022-10-06T02:36:29.873Z,1.76
2022-10-06T02:41:33.098Z,1.76
2022-10-06T02:46:36.063Z,1.94
2022-10-06T02:51:38.858Z,2.08
2022-10-06T02:56:41.626Z,2.24
2022-10-06T03:01:44.408Z,2.27
2022-10-06T03:06:52.204Z,2.60
2022-10-06T03:11:57.785Z,3.01
2022-10-06T03:17:10.503Z,3.17
2022-10-06T03:22:19.666Z,3.17
2022-10-06T03:27:28.783Z,2.94
2022-10-06T03:32:39.573Z,3.03
2022-10-06T03:37:44.424Z,3.03
2022-10-06T03:42:47.382Z,3.22
2022-10-06T03:47:50.146Z,3.35
2022-10-06T03:52:52.886Z,3.54
2022-10-06T03:57:57.659Z,3.81
2022-10-06T04:03:00.737Z,3.96
2022-10-06T04:08:03.641Z,3.96
2022-10-06T04:13:06.397Z,3.96
2022-10-06T04:18:09.265Z,4.29
2022-10-06T04:23:12.779Z,4.64
2022-10-06T04:28:16.365Z,4.86
2022-10-06T04:33:20.289Z,4.64
2022-10-06T04:38:23.191Z,4.64
2022-10-06T04:43:28.230Z,4.09
2022-10-06T04:48:32.318Z,3.36
2022-10-06T04:53:35.477Z,3.60
2022-10-06T04:58:40.509Z,3.54
2022-10-06T05:03:44.743Z,3.06
2022-10-06T05:08:49.729Z,3.13
2022-10-06T05:13:56.696Z,3.11
2022-10-06T05:19:00.901Z,3.29
2022-10-06T05:24:04.096Z,4.01
2022-10-06T05:29:06.965Z,5.16
2022-10-06T05:34:11.382Z,5.42
2022-10-06T05:39:14.687Z,5.70
2022-10-06T05:44:28.055Z,5.84
2022-10-06T05:49:34.121Z,6.03
2022-10-06T05:54:39.453Z,6.17
2022-10-06T05:59:44.177Z,6.02
2022-10-06T06:04:47.209Z,6.13
2022-10-06T06:09:50.198Z,6.43
2022-10-06T06:15:11.605Z,5.98
2022-10-06T06:20:19.446Z,6.02
2022-10-06T06:25:22.444Z,6.54
2022-10-06T06:30:26.134Z,6.35
2022-10-06T06:35:30.724Z,6.32
2022-10-06T06:40:34.703Z,6.08
2022-10-06T06:45:37.546Z,5.10
2022-10-06T06:51:00.849Z,4.78
2022-10-06T06:56:08.705Z,5.07
2022-10-06T07:01:15.279Z,5.40
2022-10-06T07:06:19.769Z,5.37
2022-10-06T07:11:30.042Z,5.15
2022-10-06T07:16:52.716Z,5.05
2022-10-06T07:22:17.179Z,5.14
2022-10-06T07:27:20.315Z,5.37
2022-10-06T07:32:24.788Z,5.62
2022-10-06T07:37:31.764Z,5.89
2022-10-06T07:42:52.504Z,6.10
2022-10-06T07:48:21.162Z,6.03
2022-10-06T07:53:34.351Z,6.05
2022-10-06T07:58:45.023Z,6.07
2022-10-06T08:03:51.350Z,6.14
2022-10-06T08:08:55.435Z,5.99
2022-10-06T08:13:58.313Z,5.84
2022-10-06T08:19:01.071Z,6.05
2022-10-06T08:24:03.968Z,6.81
2022-10-06T08:29:06.698Z,7.21
2022-10-06T08:34:11.987Z,7.26
2022-10-06T08:39:14.752Z,7.53
2022-10-06T08:44:22.713Z,7.76
2022-10-06T08:49:27.702Z,7.87
2022-10-06T08:54:48.262Z,8.11
2022-10-06T08:59:53.895Z,8.12
2022-10-06T09:05:00.589Z,8.21
2022-10-06T09:10:26.506Z,7.94
2022-10-06T09:15:47.226Z,7.66
2022-10-06T09:20:57.550Z,7.45
2022-10-06T09:26:00.720Z,7.18
2022-10-06T09:31:04.395Z,6.89
2022-10-06T09:36:10.146Z,6.88
2022-10-06T09:41:13.897Z,7.17
2022-10-06T09:46:40.073Z,7.69
2022-10-06T09:52:16.573Z,7.77
2022-10-06T09:57:26.855Z,8.22
2022-10-06T10:02:41.322Z,8.12
2022-10-06T10:07:44.040Z,8.03
2022-10-06T10:12:51.383Z,8.03
2022-10-06T10:17:56.879Z,7.96
2022-10-06T10:23:02.140Z,8.03
2022-10-06T10:28:17.653Z,8.11
2022-10-06T10:33:29.937Z,8.03
2022-10-06T10:38:33.172Z,7.76
2022-10-06T10:43:40.561Z,7.39
2022-10-06T10:49:06.548Z,7.09
2022-10-06T10:54:38.557Z,6.87
2022-10-06T10:59:56.899Z,6.56
2022-10-06T11:05:29.093Z,6.25
2022-10-06T11:10:35.989Z,5.85
2022-10-06T11:15:48.036Z,5.66
2022-10-06T11:20:59.195Z,5.40
2022-10-06T11:26:25.359Z,5.13
2022-10-06T11:31:41.744Z,4.76
2022-10-06T11:36:49.853Z,4.46
2022-10-06T11:41:55.960Z,4.18
2022-10-06T11:47:10.982Z,4.00
2022-10-06T11:52:13.672Z,4.10
2022-10-06T11:57:31.267Z,4.00
2022-10-06T12:02:34.252Z,3.58
2022-10-06T12:07:58.300Z,3.29
2022-10-06T12:19:20.993Z,2.67
2022-10-06T12:24:46.207Z,2.55
2022-10-06T12:29:52.109Z,2.48
2022-10-06T12:35:26.382Z,2.35
2022-10-06T12:40:49.690Z,2.21
2022-10-06T12:46:16.612Z,2.11
2022-10-06T12:51:27.284Z,1.96
2022-10-06T12:56:34.791Z,1.84
2022-10-06T13:01:37.567Z,1.74
2022-10-06T13:06:49.440Z,1.78
2022-10-06T13:11:52.167Z,1.77
2022-10-06T13:16:56.593Z,1.53
2022-10-06T13:22:02.400Z,1.43
2022-10-06T13:27:05.494Z,1.26
2022-10-06T13:32:17.848Z,1.31
2022-10-06T13:37:20.592Z,1.15
2022-10-06T13:42:23.762Z,0.93
2022-10-06T13:47:30.087Z,0.94
2022-10-06T13:52:41.454Z,0.94
2022-10-06T13:57:45.634Z,0.99
2022-10-06T14:02:55.192Z,0.87
2022-10-06T14:08:04.855Z,0.71
2022-10-06T14:13:46.180Z,0.78
2022-10-06T14:18:57.205Z,0.92
2022-10-06T14:24:26.445Z,0.92
2022-10-06T14:29:29.173Z,0.71
2022-10-06T14:34:32.360Z,0.37
2022-10-06T14:39:35.085Z,0.25
2022-10-06T14:44:39.012Z,0.24
2022-10-06T14:49:42.202Z,0.12
2022-10-06T14:54:45.009Z,0.05
2022-10-06T14:59:47.838Z,-0.09
2022-10-06T15:04:50.539Z,-0.17
2022-10-06T15:09:53.241Z,-0.13
2022-10-06T15:14:56.331Z,-0.01
2022-10-06T15:19:59.020Z,-0.04
2022-10-06T15:25:03.684Z,0.01
2022-10-06T15:30:06.953Z,0.13
2022-10-06T15:35:09.817Z,0.01
2022-10-06T15:40:12.644Z,0.04
2022-10-06T15:45:15.414Z,-0.17
2022-10-06T15:50:19.088Z,-0.49
2022-10-06T15:55:22.025Z,-0.63
2022-10-06T16:00:24.747Z,-0.65
2022-10-06T16:05:46.857Z,-0.55
2022-10-06T16:10:50.514Z,-0.68
2022-10-06T16:15:57.631Z,-0.77
2022-10-06T16:21:00.615Z,-0.88
2022-10-06T16:26:03.369Z,-0.87
2022-10-06T16:31:06.630Z,-0.97
2022-10-06T16:36:10.213Z,-0.97
2022-10-06T16:41:12.970Z,-1.03
2022-10-06T16:46:21.534Z,-0.91
2022-10-06T16:51:29.439Z,-0.90
2022-10-06T16:56:43.939Z,-1.00
2022-10-06T17:01:48.197Z,-1.17
2022-10-06T17:06:53.264Z,-1.69
2022-10-06T17:11:59.435Z,-1.48
2022-10-06T17:17:02.442Z,-1.64
2022-10-06T17:22:05.273Z,-1.55
2022-10-06T17:27:08.139Z,-1.64
2022-10-06T17:32:10.850Z,-1.75
2022-10-06T17:37:13.571Z,-1.71
2022-10-06T17:42:16.579Z,-1.67
2022-10-06T17:47:19.234Z,-1.75
2022-10-06T17:52:24.238Z,-1.83
2022-10-06T17:57:30.101Z,-1.89
2022-10-06T18:02:33.603Z,-2.10
2022-10-06T18:07:38.460Z,-1.98
2022-10-06T18:12:41.437Z,-2.05
2022-10-06T18:17:44.643Z,-1.95
2022-10-06T18:22:48.916Z,-2.07
2022-10-06T18:27:52.364Z,-2.01
2022-10-06T18:38:18.209Z,-2.01
2022-10-06T18:43:20.992Z,-2.02
2022-10-06T18:48:42.324Z,-2.25
2022-10-06T18:53:45.546Z,-2.22
2022-10-06T18:58:48.217Z,-2.19
2022-10-06T19:03:51.149Z,-2.40
2022-10-06T19:08:57.463Z,-2.29
2022-10-06T19:14:00.418Z,-2.32
2022-10-06T19:19:10.996Z,-2.36
2022-10-06T19:24:15.713Z,-2.38
2022-10-06T19:29:28.233Z,-2.44
2022-10-06T19:34:30.990Z,-2.43
2022-10-06T19:39:40.071Z,-2.42
2022-10-06T19:44:43.319Z,-2.36
2022-10-06T19:49:46.080Z,-2.27
2022-10-06T19:54:48.760Z,-2.15
2022-10-06T19:59:51.553Z,-1.91
2022-10-06T20:04:54.202Z,-1.74
2022-10-06T20:09:56.974Z,-1.55
2022-10-06T20:14:59.811Z,-1.46
2022-10-06T20:20:03.595Z,-1.42
2022-10-06T20:25:07.472Z,-1.24
2022-10-06T20:30:11.122Z,-1.00
2022-10-06T20:35:15.396Z,-1.08
2022-10-06T20:40:36.671Z,-0.84
2022-10-06T20:45:39.425Z,-0.84
2022-10-06T20:50:42.788Z,-0.79
2022-10-06T20:55:54.302Z,-0.92
2022-10-06T21:01:06.500Z,-0.83
2022-10-06T21:06:09.459Z,-0.86
2022-10-06T21:11:13.726Z,-0.95
2022-10-06T21:16:20.715Z,-0.94
2022-10-06T21:21:23.545Z,-1.15
2022-10-06T21:26:26.901Z,-1.04
2022-10-06T21:31:29.811Z,-1.11
2022-10-06T21:36:32.620Z,-1.22
2022-10-06T21:41:40.807Z,-1.30
2022-10-06T21:46:47.256Z,-1.24
2022-10-06T21:51:55.114Z,-1.28
2022-10-06T21:56:59.479Z,-1.35
2022-10-06T22:02:02.226Z,-1.27
2022-10-06T22:07:05.232Z,-1.34
2022-10-06T22:12:07.902Z,-1.20
2022-10-06T22:17:10.668Z,-1.04
2022-10-06T22:22:13.438Z,-0.94
2022-10-06T22:27:16.187Z,-0.92
2022-10-06T22:32:20.045Z,-0.93
2022-10-06T22:37:22.817Z,-0.98
2022-10-06T22:42:25.538Z,-0.59
2022-10-06T22:47:28.382Z,-0.48
2022-10-06T22:52:31.098Z,-0.36
2022-10-06T22:57:33.837Z,-0.23
2022-10-06T23:02:36.573Z,-0.19
2022-10-06T23:07:39.352Z,-0.33
2022-10-06T23:12:42.070Z,-0.46
2022-10-06T23:17:45.069Z,-0.51
2022-10-06T23:22:48.392Z,-0.66
2022-10-06T23:27:51.068Z,-0.76
2022-10-06T23:32:53.828Z,-0.93
2022-10-06T23:37:56.552Z,-1.09
2022-10-06T23:42:59.530Z,-1.23
2022-10-06T23:48:02.223Z,-1.44
2022-10-06T23:53:05.093Z,-1.68
2022-10-06T23:58:07.937Z,-1.92
